createdAt,value
2019-04-05T00:03:18.900Z,997.4
2019-04-05T00:06:49.008Z,997.43
2019-04-05T00:10:19.091Z,997.6
2019-04-05T00:13:49.162Z,997.45
2019-04-05T00:17:19.139Z,997.27
2019-04-05T00:20:49.270Z,996.83
2019-04-05T00:24:19.323Z,996.93
2019-04-05T00:27:49.368Z,996.88
2019-04-05T00:31:19.531Z,996.9
2019-04-05T00:34:49.644Z,996.69
2019-04-05T00:38:19.765Z,996.54
2019-04-05T00:41:49.835Z,996.22
2019-04-05T00:45:27.947Z,995.57
2019-04-05T00:48:58.937Z,995.43
2019-04-05T00:52:28.938Z,995.3
2019-04-05T00:55:59.287Z,994.98
2019-04-05T00:59:29.325Z,994.82
2019-04-05T01:00:16.796Z,994.79
2019-04-05T01:03:46.930Z,994.3
2019-04-05T01:07:16.948Z,994.29
2019-04-05T01:10:46.997Z,994.02
2019-04-05T01:14:17.371Z,993.95
2019-04-05T01:17:48.077Z,993.98
2019-04-05T01:21:19.768Z,993.82
2019-04-05T01:24:49.952Z,993.43
2019-04-05T01:28:20.810Z,993.23
2019-04-05T01:31:50.942Z,992.97
2019-04-05T01:35:21.262Z,992.91
2019-04-05T01:38:51.415Z,992.93
2019-04-05T01:42:21.883Z,993.11
2019-04-05T01:45:53.674Z,993.51
2019-04-05T01:49:24.274Z,994.08
2019-04-05T01:52:54.385Z,994.43
2019-04-05T01:56:24.575Z,995.07
2019-04-05T01:59:54.785Z,995.81
2019-04-05T02:03:25.025Z,996.39
2019-04-05T02:06:55.233Z,996.73
2019-04-05T02:10:25.467Z,997.11
2019-04-05T02:13:55.744Z,997.47
2019-04-05T02:17:25.868Z,997.69
2019-04-05T02:20:55.968Z,997.9
2019-04-05T02:24:26.049Z,997.8
2019-04-05T02:27:56.147Z,997.92
2019-04-05T02:31:26.215Z,997.62
2019-04-05T02:34:56.367Z,997.34
2019-04-05T02:38:26.518Z,997.21
2019-04-05T02:41:57.016Z,996.46
2019-04-05T02:45:31.603Z,995.94
2019-04-05T02:49:03.178Z,995.45
2019-04-05T02:52:34.046Z,994.83
2019-04-05T02:56:05.216Z,994.59
2019-04-05T02:59:35.580Z,994.24
2019-04-05T03:00:16.984Z,994.17
2019-04-05T03:03:47.371Z,994.02
2019-04-05T03:07:17.745Z,993.95
2019-04-05T03:11:28.142Z,994.3
2019-04-05T03:15:00.527Z,994.86
2019-04-05T03:18:37.807Z,995.48
2019-04-05T03:22:12.394Z,995.9
2019-04-05T03:25:43.185Z,996.15
2019-04-05T03:29:13.537Z,996.13
2019-04-05T03:32:43.989Z,996.23
2019-04-05T03:36:15.183Z,996.19
2019-04-05T03:39:45.559Z,996.06
2019-04-05T03:43:15.852Z,995.93
2019-04-05T03:46:56.487Z,995.45
2019-04-05T03:50:27.639Z,995.3
2019-04-05T03:53:57.987Z,995.5
2019-04-05T03:57:28.217Z,995.68
2019-04-05T04:00:58.420Z,996.09
2019-04-05T04:04:29.327Z,996.66
2019-04-05T04:07:59.731Z,997.36
2019-04-05T04:11:30.015Z,997.96
2019-04-05T04:15:14.796Z,998.04
2019-04-05T04:18:45.140Z,998.08
2019-04-05T04:22:26.696Z,998.13
2019-04-05T04:25:57.215Z,997.91
2019-04-05T04:29:27.240Z,997.91
2019-04-05T04:32:59.301Z,997.88
2019-04-05T04:36:29.612Z,998.24
2019-04-05T04:39:59.878Z,998.42
2019-04-05T04:43:30.030Z,998.82
2019-04-05T04:47:00.472Z,999.29
2019-04-05T04:50:31.057Z,999.61
2019-04-05T04:54:01.843Z,999.89
2019-04-05T04:57:32.075Z,1000.32
2019-04-05T05:00:16.320Z,1000.28
2019-04-05T05:03:46.741Z,1000.67
2019-04-05T05:07:17.013Z,1001.51
2019-04-05T05:10:47.184Z,1001.65
2019-04-05T05:14:17.507Z,1001.81
2019-04-05T05:17:58.153Z,1001.84
2019-04-05T05:21:29.279Z,1001.93
2019-04-05T05:24:59.452Z,1002.18
2019-04-05T05:28:32.679Z,1002.83
2019-04-05T05:32:03.323Z,1003.42
2019-04-05T05:35:33.698Z,1003.58
2019-04-05T05:39:06.307Z,1004.17
2019-04-05T05:42:36.762Z,1003.92
2019-04-05T05:46:06.938Z,1003.53
2019-04-05T05:49:36.956Z,1003.51
2019-04-05T05:53:07.378Z,1003.12
2019-04-05T05:56:37.471Z,1003.59
2019-04-05T06:00:09.719Z,1004.16
2019-04-05T06:03:39.885Z,1004.6
2019-04-05T06:07:10.005Z,1004.63
2019-04-05T06:10:40.315Z,1005.21
2019-04-05T06:14:10.406Z,1004.96
2019-04-05T06:17:40.618Z,1005.18
2019-04-05T06:21:10.648Z,1005.57
2019-04-05T06:24:40.715Z,1005.66
2019-04-05T06:28:10.818Z,1005.37
2019-04-05T06:31:40.884Z,1005.92
2019-04-05T06:35:11.109Z,1007.04
2019-04-05T06:38:41.179Z,1007.4
2019-04-05T06:42:11.245Z,1007.7
2019-04-05T06:45:41.403Z,1007.54
2019-04-05T06:49:11.570Z,1007.3
2019-04-05T06:52:41.570Z,1007.34
2019-04-05T06:56:11.753Z,1009
2019-04-05T06:59:42.054Z,1010.01
2019-04-05T07:00:30.131Z,1010.01
2019-04-05T07:04:00.524Z,1009.74
2019-04-05T07:07:30.662Z,1010.72
2019-04-05T07:11:00.833Z,1011.06
2019-04-05T07:14:30.932Z,1011.21
2019-04-05T07:18:01.130Z,1011.06
2019-04-05T07:21:31.333Z,1010.3
2019-04-05T07:25:01.452Z,1010.07
2019-04-05T07:28:31.606Z,1010.94
2019-04-05T07:32:01.782Z,1011.4
2019-04-05T07:35:33.545Z,1011.77
2019-04-05T07:39:06.329Z,1011.48
2019-04-05T07:42:36.551Z,1012
2019-04-05T07:46:06.646Z,1012.07
2019-04-05T07:49:36.725Z,1011.94
2019-04-05T07:53:06.870Z,1011.13
2019-04-05T07:56:36.782Z,1011.3
2019-04-05T08:00:25.880Z,1012.01
2019-04-05T08:03:58.047Z,1011.04
2019-04-05T08:07:34.204Z,1010.46
2019-04-05T08:11:04.532Z,1010.65
2019-04-05T08:14:37.473Z,1011.77
2019-04-05T08:18:07.616Z,1012.21
2019-04-05T08:21:38.088Z,1011.36
2019-04-05T08:25:08.380Z,1011.75
2019-04-05T08:28:38.469Z,1011.78
2019-04-05T08:32:14.515Z,1012.39
2019-04-05T08:35:44.953Z,1013.74
2019-04-05T08:39:15.147Z,1013.06
2019-04-05T08:42:45.262Z,1012.98
2019-04-05T08:46:15.624Z,1014.2
2019-04-05T08:49:45.711Z,1013.27
2019-04-05T08:53:15.824Z,1013.28
2019-04-05T08:56:45.860Z,1013.69
2019-04-05T09:00:17.266Z,1014.77
2019-04-05T09:03:47.425Z,1014.46
2019-04-05T09:07:17.533Z,1013.71
2019-04-05T09:10:47.765Z,1013.76
2019-04-05T09:14:20.627Z,1012.52
2019-04-05T09:17:51.032Z,1012.02
2019-04-05T09:21:21.157Z,1012.18
2019-04-05T09:24:51.397Z,1011.68
2019-04-05T09:28:21.535Z,1012.76
2019-04-05T09:31:51.623Z,1012.59
2019-04-05T09:35:21.820Z,1012.48
2019-04-05T09:38:51.896Z,1012.75
2019-04-05T09:42:21.987Z,1014.53
2019-04-05T09:45:52.039Z,1016.28
2019-04-05T09:49:22.198Z,1016.51
2019-04-05T09:52:52.289Z,1016.05
2019-04-05T09:56:22.381Z,1018.02
2019-04-05T09:59:52.494Z,1018.35
2019-04-05T10:03:22.563Z,1019.75
2019-04-05T10:06:52.585Z,1016.95
2019-04-05T10:10:22.662Z,1016.52
2019-04-05T10:13:52.657Z,1016.98
2019-04-05T10:17:22.720Z,1016.1
2019-04-05T10:20:52.898Z,1018.2
2019-04-05T10:24:22.985Z,1019.89
2019-04-05T10:27:52.994Z,1019.93
2019-04-05T10:31:23.039Z,1019.42
2019-04-05T10:34:53.187Z,1018.29
2019-04-05T10:38:23.283Z,1020.4
2019-04-05T10:42:03.495Z,1021.14
2019-04-05T10:45:34.157Z,1021.28
2019-04-05T10:49:04.266Z,1020.41
2019-04-05T10:52:34.559Z,1018.39
2019-04-05T10:56:04.923Z,1018.99
2019-04-05T10:59:35.080Z,1019.73
2019-04-05T11:00:17.397Z,1019.96
2019-04-05T11:03:47.466Z,1019.87
2019-04-05T11:07:17.553Z,1021.07
2019-04-05T11:10:47.720Z,1020.42
2019-04-05T11:14:17.862Z,1019.9
2019-04-05T11:17:47.968Z,1018.93
2019-04-05T11:21:18.882Z,1020.19
2019-04-05T11:24:49.032Z,1021.3
2019-04-05T11:28:19.202Z,1024.31
2019-04-05T11:31:56.922Z,1024.62
2019-04-05T11:35:27.586Z,1026.51
2019-04-05T11:38:58.021Z,1025.29
2019-04-05T11:42:28.755Z,1023.01
2019-04-05T11:45:58.976Z,1022.19
2019-04-05T11:49:29.378Z,1019.14
2019-04-05T11:52:59.518Z,1019.1
2019-04-05T11:56:30.882Z,1020.63
2019-04-05T12:00:01.069Z,1022.18
2019-04-05T12:03:31.347Z,1024.46
2019-04-05T12:07:01.389Z,1026.29
2019-04-05T12:10:32.071Z,1025.38
2019-04-05T12:14:02.963Z,1025.06
2019-04-05T12:17:35.047Z,1028.24
2019-04-05T12:21:05.916Z,1028.42
2019-04-05T12:24:36.208Z,1027.24
2019-04-05T12:28:10.084Z,1027.74
2019-04-05T12:31:40.622Z,1026.34
2019-04-05T12:35:11.031Z,1027.16
2019-04-05T12:38:41.230Z,1025.81
2019-04-05T12:42:12.268Z,1027.13
2019-04-05T12:45:44.640Z,1027.92
2019-04-05T12:49:15.802Z,1028.77
2019-04-05T12:52:45.920Z,1030.01
2019-04-05T12:56:16.082Z,1030.63
2019-04-05T12:59:46.114Z,1028.34
2019-04-05T13:00:17.214Z,1028.57
2019-04-05T13:03:47.376Z,1026.98
2019-04-05T13:07:17.658Z,1025.5
2019-04-05T13:10:48.061Z,1028.42
2019-04-05T13:14:18.115Z,1027.82
2019-04-05T13:17:48.235Z,1026.12
2019-04-05T13:21:18.270Z,1026.95
2019-04-05T13:24:48.360Z,1026.97
2019-04-05T13:28:19.069Z,1026.89
2019-04-05T13:31:49.598Z,1028.9
2019-04-05T13:35:19.787Z,1028.95
2019-04-05T13:38:55.026Z,1026.91
2019-04-05T13:42:25.387Z,1026.41
2019-04-05T13:45:55.544Z,1027.36
2019-04-05T13:49:25.654Z,1027.39
2019-04-05T13:52:55.734Z,1029.65
2019-04-05T13:56:25.860Z,1031.05
2019-04-05T13:59:56.013Z,1032.12
2019-04-05T14:03:26.169Z,1030.46
2019-04-05T14:06:56.295Z,1030.27
2019-04-05T14:10:26.321Z,1030.71
2019-04-05T14:13:56.465Z,1028.02
2019-04-05T14:17:26.553Z,1027.89
2019-04-05T14:20:56.587Z,1029.27
2019-04-05T14:24:26.836Z,1028.96
2019-04-05T14:27:57.092Z,1027.7
2019-04-05T14:31:27.211Z,1028.04
2019-04-05T14:34:57.413Z,1027.37
2019-04-05T14:38:27.498Z,1028.93
2019-04-05T14:42:09.057Z,1031.19
2019-04-05T14:45:39.507Z,1030.58
2019-04-05T14:49:09.590Z,1030.99
2019-04-05T14:52:39.696Z,1031.44
2019-04-05T14:56:09.872Z,1034.98
2019-04-05T14:59:40.100Z,1035.56
2019-04-05T15:00:17.311Z,1035.75
2019-04-05T15:03:47.524Z,1035.84
2019-04-05T15:07:20.505Z,1032.39
2019-04-05T15:10:51.447Z,1032.01
2019-04-05T15:14:21.740Z,1034.7
2019-04-05T15:17:51.785Z,1037.77
2019-04-05T15:21:21.926Z,1039.94
2019-04-05T15:24:52.035Z,1041.3
2019-04-05T15:28:22.514Z,1040.42
2019-04-05T15:31:55.507Z,1039.74
2019-04-05T15:35:26.419Z,1041.81
2019-04-05T15:39:01.262Z,1040.28
2019-04-05T15:42:31.730Z,1041.56
2019-04-05T15:46:01.889Z,1038.05
2019-04-05T15:49:32.064Z,1035.35
2019-04-05T15:53:02.876Z,1033.66
2019-04-05T15:56:34.110Z,1027.59
2019-04-05T16:00:08.391Z,1021.56
2019-04-05T16:03:38.554Z,1019.35
2019-04-05T16:07:08.745Z,1016.22
2019-04-05T16:10:39.057Z,1013.03
2019-04-05T16:14:09.123Z,1012.18
2019-04-05T16:17:39.384Z,1010
2019-04-05T16:21:09.524Z,1009.02
2019-04-05T16:24:39.650Z,1008.41
2019-04-05T16:28:09.764Z,1007.25
2019-04-05T16:31:39.908Z,1006.83
2019-04-05T16:35:10.208Z,1006.56
2019-04-05T16:38:40.347Z,1005.8
2019-04-05T16:42:10.496Z,1005.24
2019-04-05T16:45:40.727Z,1004.17
2019-04-05T16:49:10.952Z,1003.83
2019-04-05T16:52:45.016Z,1003.66
2019-04-05T16:56:15.358Z,1002.95
2019-04-05T16:59:45.422Z,1002.6
2019-04-05T17:00:17.298Z,1002.63
2019-04-05T17:03:47.439Z,1002.68
2019-04-05T17:07:17.669Z,1002.7
2019-04-05T17:10:47.694Z,1002.68
2019-04-05T17:14:17.765Z,1002.47
2019-04-05T17:17:47.904Z,1002.39
2019-04-05T17:21:17.934Z,1002.38
2019-04-05T17:24:48.072Z,1002.01
2019-04-05T17:28:18.142Z,1002.03
2019-04-05T17:31:48.199Z,1001.92
2019-04-05T17:35:19.865Z,1001.82
2019-04-05T17:38:49.956Z,1002.22
2019-04-05T17:42:20.000Z,1002.45
2019-04-05T17:45:50.267Z,1002.94
2019-04-05T17:49:20.307Z,1003.48
2019-04-05T17:52:50.388Z,1003.87
2019-04-05T17:56:20.616Z,1004.51
2019-04-05T17:59:51.284Z,1004.55
2019-04-05T18:03:21.358Z,1004.04
2019-04-05T18:06:51.632Z,1004.31
2019-04-05T18:10:21.839Z,1003.89
2019-04-05T18:13:52.047Z,1004.35
2019-04-05T18:17:22.210Z,1004.08
2019-04-05T18:20:52.412Z,1004.63
2019-04-05T18:24:22.434Z,1005
2019-04-05T18:27:52.691Z,1005.38
2019-04-05T18:31:22.799Z,1005.19
2019-04-05T18:34:52.929Z,1005.04
2019-04-05T18:38:22.983Z,1004.62
2019-04-05T18:41:53.052Z,1004.74
2019-04-05T18:45:23.213Z,1004.61
2019-04-05T18:48:53.194Z,1004.31
2019-04-05T18:52:23.345Z,1004.05
2019-04-05T18:55:53.434Z,1003.92
2019-04-05T18:59:23.499Z,1004.16
2019-04-05T19:00:16.822Z,1004.16
2019-04-05T19:03:46.925Z,1004.28
2019-04-05T19:07:16.935Z,1004.34
2019-04-05T19:10:47.004Z,1004.57
2019-04-05T19:14:17.127Z,1004.53
2019-04-05T19:17:47.164Z,1004.66
2019-04-05T19:21:17.173Z,1004.41
2019-04-05T19:24:47.274Z,1004.48
2019-04-05T19:28:17.355Z,1004.91
2019-04-05T19:51:47.910Z,1005.14
2019-04-05T19:55:17.996Z,1005.1
2019-04-05T19:58:48.118Z,1005.31
2019-04-05T20:02:18.287Z,1005.79
2019-04-05T20:05:48.509Z,1005.62
2019-04-05T20:09:20.674Z,1005.52
2019-04-05T20:12:50.880Z,1005.75
2019-04-05T20:16:21.013Z,1005.96
2019-04-05T20:19:51.100Z,1005.88
2019-04-05T20:23:21.154Z,1005.45
2019-04-05T20:26:51.330Z,1005.1
2019-04-05T20:30:21.525Z,1005.19
2019-04-05T20:33:51.762Z,1005.21
2019-04-05T20:37:21.876Z,1005.12
2019-04-05T20:40:51.923Z,1005.03
2019-04-05T20:44:22.019Z,1005.03
2019-04-05T20:47:52.156Z,1005.03
2019-04-05T20:51:22.098Z,1004.51
2019-04-05T20:54:52.218Z,1004.68
2019-04-05T20:58:22.287Z,1004.68
2019-04-05T21:00:17.559Z,1004.9
2019-04-05T21:03:47.719Z,1004.57
2019-04-05T21:07:17.770Z,1005.13
2019-04-05T21:10:47.827Z,1005.36
2019-04-05T21:14:17.800Z,1005.42
2019-04-05T21:17:47.917Z,1005.25
2019-04-05T21:21:17.942Z,1005
2019-04-05T21:24:47.988Z,1005.2
2019-04-05T21:28:18.051Z,1005.71
2019-04-05T21:31:48.248Z,1005.99
2019-04-05T21:35:18.348Z,1005.81
2019-04-05T21:38:48.475Z,1005.91
2019-04-05T21:42:18.730Z,1005.95
2019-04-05T21:45:48.882Z,1005.91
2019-04-05T21:49:19.081Z,1006.18
2019-04-05T21:52:49.164Z,1006.16
2019-04-05T21:56:19.294Z,1005.92
2019-04-05T21:59:49.425Z,1005.66
2019-04-05T22:03:19.536Z,1004.92
2019-04-05T22:06:49.615Z,1004.4
2019-04-05T22:10:19.720Z,1004.53
2019-04-05T22:13:49.834Z,1004.81
2019-04-05T22:17:19.887Z,1004.53
2019-04-05T22:20:50.024Z,1004.86
2019-04-05T22:24:20.077Z,1005.11
2019-04-05T22:27:50.177Z,1005.3
2019-04-05T22:31:20.175Z,1005.23
2019-04-05T22:34:50.251Z,1005.15
2019-04-05T22:38:20.318Z,1004.89
2019-04-05T22:41:50.310Z,1004.71
2019-04-05T22:45:20.371Z,1004.82
2019-04-05T22:48:50.419Z,1004.84
2019-04-05T22:52:20.558Z,1004.25
2019-04-05T22:55:50.790Z,1003.59
2019-04-05T22:59:20.761Z,1002.6
2019-04-05T23:00:17.239Z,1002.68
2019-04-05T23:03:47.332Z,1003.05
2019-04-05T23:07:17.449Z,1003.37
2019-04-05T23:10:47.530Z,1003.59
2019-04-05T23:14:17.539Z,1003.48
2019-04-05T23:17:47.718Z,1003.17
2019-04-05T23:21:17.940Z,1003.35
2019-04-05T23:24:47.992Z,1003.64
2019-04-05T23:28:18.015Z,1003.92
2019-04-05T23:31:48.312Z,1003.79
2019-04-05T23:35:18.482Z,1003.97
2019-04-05T23:38:48.596Z,1004.02
2019-04-05T23:42:18.807Z,1003.88
2019-04-05T23:45:49.002Z,1003.13
2019-04-05T23:49:19.010Z,1003.06
2019-04-05T23:52:49.205Z,1003.14
2019-04-05T23:56:19.399Z,1003.51
2019-04-05T23:59:49.480Z,1003.65
